METAR Data
IDs: Format: Raw Decoded Include TAF

Data at: 2330 UTC 25 Oct 2021

KF17 252315Z AUTO 04003KT 10SM CLR 30/21 A2993 RMK AO2
KF17 252255Z AUTO 03003KT 10SM CLR 31/20 A2992 RMK AO2
KF17 252235Z AUTO 03004KT 10SM CLR 32/20 A2992 RMK AO2
KF17 252215Z AUTO 03004KT 10SM CLR 33/20 A2992 RMK AO2
KF17 252155Z AUTO 33003KT 10SM CLR 33/19 A2992 RMK AO2
KF17 252135Z AUTO 00000KT 10SM CLR 33/18 A2992 RMK AO2
KF17 252115Z AUTO 02003KT 10SM SCT050 33/20 A2992 RMK AO2
KF17 252055Z AUTO 01004KT 10SM SCT050 33/20 A2992 RMK AO2
KF17 252035Z AUTO 24003KT 10SM SCT050 33/18 A2992 RMK AO2
KF17 252015Z AUTO 00000KT 10SM CLR 33/20 A2992 RMK AO2
KF17 251955Z AUTO 32003KT 10SM CLR 33/20 A2993 RMK AO2
KF17 251935Z AUTO 02003KT 10SM CLR 33/20 A2993 RMK AO2
KF17 251915Z AUTO 26003KT 10SM SCT038 32/21 A2994 RMK AO2
KF17 251855Z AUTO 01004KT 10SM SCT038 32/21 A2994 RMK AO2
KF17 251835Z AUTO 25003KT 10SM SCT036 32/21 A2995 RMK AO2
KF17 251815Z AUTO 00000KT 10SM SCT028 31/22 A2996 RMK AO2
KF17 251755Z AUTO 31003KT 10SM BKN028 31/22 A2997 RMK AO2
KF17 251735Z AUTO 23003KT 10SM OVC028 31/22 A2998 RMK AO2
KF17 251715Z AUTO 00000KT 10SM OVC026 30/23 A2998 RMK AO2
KF17 251655Z AUTO 29004KT 10SM BKN026 30/23 A2999 RMK AO2
KF17 251635Z AUTO 00000KT 10SM SCT024 30/22 A2998 RMK AO2
KF17 251615Z AUTO 31004KT 10SM SCT016 28/23 A2999 RMK AO2
KF17 251555Z AUTO 00000KT 10SM SCT016 28/23 A2999 RMK AO2
KF17 251535Z AUTO 00000KT 10SM BKN012 BKN019 27/23 A2999 RMK AO2
KF17 251515Z AUTO 28005KT 10SM OVC010 27/23 A2999 RMK AO2
KF17 251455Z AUTO 27005KT 10SM 26/23 A3000 RMK AO2
KF17 251435Z AUTO 00000KT 10SM 26/24 A2999 RMK AO2
KF17 251415Z AUTO 00000KT 7SM 25/24 A3000 RMK AO2
KF17 251355Z AUTO 00000KT 4SM BR 25/24 A2999 RMK AO2
KF17 251335Z AUTO 00000KT 1 3/4SM BR 25/24 A2998 RMK AO2
KF17 251315Z AUTO 00000KT 3SM BR 25/24 A2997 RMK AO2
KF17 251255Z AUTO 00000KT 1 1/2SM BR OVC004 25/24 A2997 RMK AO2
KF17 251235Z AUTO 00000KT 1 1/2SM BR OVC004 25/24 A2997 RMK AO2
KF17 251215Z AUTO 00000KT 1 1/2SM BR OVC004 25/24 A2997 RMK AO2
KF17 251155Z AUTO 00000KT 2 1/2SM BR OVC004 25/23 A2996 RMK AO2
KF17 251135Z AUTO 25003KT 3SM BR OVC004 25/23 A2995 RMK AO2
KF17 251115Z AUTO 25003KT 5SM BR OVC006 25/23 A2995 RMK AO2
KF17 251055Z AUTO 00000KT 10SM OVC008 25/23 A2994 RMK AO2
KF17 251035Z AUTO 00000KT 10SM OVC008 25/23 A2993 RMK AO2
KF17 251015Z AUTO 00000KT 10SM OVC010 25/23 A2992 RMK AO2
KF17 250955Z AUTO 00000KT 10SM OVC014 25/23 A2992 RMK AO2
KF17 250935Z AUTO 21003KT 10SM OVC014 25/23 A2992 RMK AO2
KF17 250915Z AUTO 00000KT 10SM 25/23 A2992 RMK AO2
KF17 250855Z AUTO 20004KT 10SM 25/23 A2992 RMK AO2
KF17 250835Z AUTO 22004KT 10SM 25/23 A2992 RMK AO2
KF17 250815Z AUTO 20006KT 10SM OVC007 25/23 A2992 RMK AO2
KF17 250755Z AUTO 20005KT 10SM OVC007 25/23 A2991 RMK AO2
KF17 250735Z AUTO 21005KT 10SM OVC007 25/23 A2992 RMK AO2
KF17 250715Z AUTO 19005KT 10SM OVC007 25/23 A2991 RMK AO2
KF17 250655Z AUTO 19003KT 10SM OVC009 25/23 A2991 RMK AO2
KF17 250635Z AUTO 18004KT 10SM BKN009 24/23 A2991 RMK AO2
KF17 250615Z AUTO 18005KT 10SM CLR 24/23 A2991 RMK AO2
KF17 250555Z AUTO 17005KT 10SM CLR 25/23 A2991 RMK AO2
KF17 250535Z AUTO 18004KT 10SM CLR 25/23 A2992 RMK AO2
KF17 250515Z AUTO 18004KT 10SM CLR 25/23 A2992 RMK AO2
KF17 250455Z AUTO 19007KT 10SM CLR 25/23 A2992 RMK AO2
KF17 250435Z AUTO 17005KT 10SM CLR 25/22 A2991 RMK AO2
KF17 250415Z AUTO 18007KT 10SM CLR 25/22 A2990 RMK AO2
KF17 250355Z AUTO 17006KT 10SM CLR 25/22 A2990 RMK AO2
KF17 250335Z AUTO 17004KT 10SM CLR 25/22 A2990 RMK AO2
KF17 250315Z AUTO 16004KT 10SM CLR 25/21 A2989 RMK AO2
KF17 250255Z AUTO 15003KT 10SM CLR 25/21 A2989 RMK AO2
KF17 250235Z AUTO 16003KT 10SM CLR 25/21 A2989 RMK AO2
KF17 250215Z AUTO 00000KT 10SM CLR 25/21 A2989 RMK AO2
KF17 250155Z AUTO 00000KT 10SM CLR 25/21 A2987 RMK AO2
KF17 250135Z AUTO 00000KT 10SM CLR 25/21 A2987 RMK AO2
KF17 250115Z AUTO 17003KT 10SM CLR 26/21 A2986 RMK AO2
KF17 250055Z AUTO 17003KT 10SM CLR 27/21 A2985 RMK AO2
KF17 250035Z AUTO 17003KT 10SM CLR 26/21 A2985 RMK AO2
KF17 250015Z AUTO 17003KT 10SM CLR 27/21 A2985 RMK AO2
KF17 242355Z AUTO 17004KT 10SM CLR 28/20 A2985 RMK AO2
KF17 242335Z AUTO 18006KT 10SM 28/20 A2985 RMK AO2
KF17 242315Z AUTO 17006KT 10SM 29/20 A2984 RMK AO2
KF17 242255Z AUTO 19008KT 10SM 30/20 A2983 RMK AO2
KF17 242235Z AUTO 18008KT 10SM 30/20 A2984 RMK AO2
KF17 242215Z AUTO 19008G15KT 10SM 31/20 A2984 RMK AO2
KF17 242155Z AUTO 17007KT 10SM 31/21 A2984 RMK AO2
KF17 242135Z AUTO 16009KT 10SM 31/21 A2983 RMK AO2
KF17 242115Z AUTO 17009G15KT 10SM 31/20 A2983 RMK AO2
KF17 242055Z AUTO 18007G15KT 10SM 31/21 A2984 RMK AO2
KF17 242035Z AUTO 17012KT 10SM 31/21 A2984 RMK AO2
KF17 242015Z AUTO 19008KT 10SM 31/21 A2985 RMK AO2
KF17 241955Z AUTO 17010KT 10SM 30/20 A2985 RMK AO2
KF17 241935Z AUTO 18010G18KT 10SM 31/20 A2986 RMK AO2
KF17 241915Z AUTO 16008G18KT 10SM SCT040 SCT055 BKN070 31/20 A2987 RMK AO2
KF17 241855Z AUTO 19011G18KT 10SM SCT042 SCT070 31/20 A2988 RMK AO2
KF17 241835Z AUTO 16015G22KT 10SM SCT065 31/19 A2988 RMK AO2
KF17 241815Z AUTO 17014G21KT 10SM SCT065 31/18 A2989 RMK AO2
KF17 241755Z AUTO 17015G19KT 10SM SCT065 31/18 A2990 RMK AO2
KF17 241735Z AUTO 18012G20KT 10SM BKN070 BKN085 31/18 A2991 RMK AO2
KF17 241715Z AUTO 18014G17KT 10SM SCT070 BKN085 31/17 A2992 RMK AO2
KF17 241655Z AUTO 18009G15KT 10SM SCT060 SCT085 31/17 A2992 RMK AO2
KF17 241635Z AUTO 18012G16KT 10SM CLR 30/17 A2993 RMK AO2
KF17 241615Z AUTO 19011G18KT 10SM CLR 30/17 A2993 RMK AO2
KF17 241555Z AUTO 18014G19KT 10SM CLR 29/17 A2993 RMK AO2
KF17 241535Z AUTO 20008G16KT 10SM CLR 28/17 A2993 RMK AO2
KF17 241515Z AUTO 18010G15KT 10SM CLR 28/18 A2993 RMK AO2
KF17 241455Z AUTO 18007G16KT 10SM CLR 27/18 A2993 RMK AO2
KF17 241435Z AUTO 18006KT 10SM CLR 26/18 A2992 RMK AO2
KF17 241415Z AUTO 16005KT 10SM CLR 25/19 A2992 RMK AO2
KF17 241355Z AUTO 18006KT 10SM CLR 24/20 A2992 RMK AO2
KF17 241335Z AUTO 10SM CLR 23/20 A2991 RMK AO2
KF17 241315Z AUTO 10SM CLR 23/20 A2991 RMK AO2
KF17 241255Z AUTO 10SM CLR 22/20 A2991 RMK AO2
KF17 241235Z AUTO 18005KT 10SM CLR 22/20 A2990 RMK AO2
KF17 241215Z AUTO 17005KT 10SM CLR 21/20 A2990 RMK AO2
KF17 241155Z AUTO 00000KT 10SM CLR 20/18 A2991 RMK AO2
KF17 241135Z AUTO 00000KT 10SM CLR 20/19 A2991 RMK AO2